Terminal Aerodrome Forecast
Issued by NWS Twin Cities, MN

Home | Current Version | Previous Version | Text Only | Print | Product List | Glossary Off
Versions: 1 2 3 4 5 6 7 8 9 10 11 12 13 14 15 16 17 18 19 20 21 22 23 24 25 26 27

000
FTUS43 KMPX 241700
TAFMSP
TAF
KMSP 241728Z 2418/2524 18005KT P6SM SCT020 BKN250
      TEMPO 2418/2419 BKN020
     FM242000 23008KT P6SM SCT250
     FM250300 26006KT P6SM SCT250
     FM251000 30006KT P6SM SCT250
     FM251700 30011G18KT P6SM FEW250=

USA.gov is the U.S. government's official web portal to all federal, state and local government web resources and services.